< < Back
Terminal Aerodrome Forecast


Current Version              Previous Versions:   1  2  3  4  5  6  7  8  9  

Terminal Aerodrome Forecast

585
FTUS42 KGSP 270900 AAA
TAFCLT
TAF AMD
KCLT 270900Z 2709/2806 32005KT P6SM SKC
     FM271600 32007G16KT P6SM SCT090=



Latest METAR

883
SAUS70 KWBC 271000 RRB
MTRCLT
METAR KCLT 270952Z 30006KT 10SM CLR M01/M08 A2978 RMK AO2 SLP086
T10061078


USA.gov is the U.S. government's official web portal to all federal, state and local government web resources and services.